Terminal Aerodrome Forecast
Issued by NWS

Home | Current Version | Previous Version | Text Only | Print | Product List | Glossary On
Versions: 1 2 3 4 5 6 7 8 9 10 11 12
000
FTUS45 KTFX 230500
TAFHLN
TAF
KHLN 230520Z 2306/2406 VRB03KT P6SM SCT100 BKN140
     FM230900 VRB05KT P6SM SCT080
     FM232200 24006KT P6SM VCTS SCT070CB BKN120
     FM240200 VRB04KT P6SM SCT090 BKN150=

USA.gov is the U.S. government's official web portal to all federal, state and local government web resources and services.